createdAt,value
2019-03-29T00:00:58.253Z,80.11
2019-03-29T00:03:27.692Z,79.85
2019-03-29T00:05:56.741Z,80.16
2019-03-29T00:08:25.363Z,81.27
2019-03-29T00:10:53.649Z,81.02
2019-03-29T00:13:23.219Z,79.93
2019-03-29T00:15:51.740Z,80.71
2019-03-29T00:18:19.998Z,79.52
2019-03-29T00:20:48.285Z,80.06
2019-03-29T00:23:16.538Z,80.67
2019-03-29T00:25:44.824Z,81.33
2019-03-29T00:28:13.086Z,80.50
2019-03-29T00:30:41.366Z,80.44
2019-03-29T00:33:09.629Z,80.92
2019-03-29T00:35:38.651Z,80.87
2019-03-29T00:38:07.504Z,80.69
2019-03-29T00:40:36.599Z,80.11
2019-03-29T00:43:04.879Z,80.01
2019-03-29T00:45:33.135Z,80.50
2019-03-29T00:48:01.416Z,81.22
2019-03-29T00:50:29.684Z,81.67
2019-03-29T00:52:57.955Z,81.45
2019-03-29T00:55:26.223Z,82.04
2019-03-29T00:57:54.498Z,82.18
2019-03-29T01:00:23.599Z,81.00
2019-03-29T01:02:51.883Z,80.87
2019-03-29T01:05:21.225Z,80.66
2019-03-29T01:07:49.572Z,80.52
2019-03-29T01:10:17.831Z,79.90
2019-03-29T01:12:46.110Z,79.69
2019-03-29T01:15:14.367Z,80.27
2019-03-29T01:17:42.971Z,79.69
2019-03-29T01:20:11.227Z,80.55
2019-03-29T01:22:39.508Z,81.20
2019-03-29T01:25:08.537Z,80.94
2019-03-29T01:27:36.967Z,80.42
2019-03-29T01:30:06.366Z,80.43
2019-03-29T01:32:34.647Z,81.23
2019-03-29T01:35:04.647Z,81.17
2019-03-29T01:37:32.926Z,81.37
2019-03-29T01:40:01.188Z,81.03
2019-03-29T01:42:29.738Z,81.37
2019-03-29T01:44:58.067Z,81.68
2019-03-29T01:47:26.347Z,81.96
2019-03-29T01:49:54.605Z,81.78
2019-03-29T01:52:22.885Z,81.78
2019-03-29T01:54:51.152Z,82.02
2019-03-29T01:57:19.712Z,81.63
2019-03-29T01:59:47.966Z,81.56
2019-03-29T02:02:16.313Z,81.24
2019-03-29T02:04:44.575Z,83.11
2019-03-29T02:07:13.129Z,82.79
2019-03-29T02:09:42.160Z,83.15
2019-03-29T02:12:10.707Z,82.95
2019-03-29T02:14:38.967Z,83.33
2019-03-29T02:17:07.250Z,83.11
2019-03-29T02:19:35.511Z,84.44
2019-03-29T02:22:03.792Z,83.61
2019-03-29T02:24:32.052Z,83.63
2019-03-29T02:27:00.983Z,82.58
2019-03-29T02:29:29.474Z,82.36
2019-03-29T02:31:57.739Z,83.98
2019-03-29T02:34:26.021Z,83.89
2019-03-29T02:36:54.282Z,84.04
2019-03-29T02:39:23.131Z,84.65
2019-03-29T02:41:51.393Z,86.13
2019-03-29T02:44:19.670Z,85.55
2019-03-29T02:46:47.932Z,85.92
2019-03-29T02:49:16.242Z,86.20
2019-03-29T02:51:45.050Z,86.38
2019-03-29T02:54:13.679Z,85.75
2019-03-29T02:56:41.939Z,86.05
2019-03-29T02:59:10.223Z,86.46
2019-03-29T03:01:38.481Z,86.87
2019-03-29T03:04:06.843Z,85.98
2019-03-29T03:06:35.109Z,85.37
2019-03-29T03:09:13.347Z,85.97
2019-03-29T03:11:34.459Z,86.95
2019-03-29T03:14:03.300Z,86.90
2019-03-29T03:16:31.575Z,87.45
2019-03-29T03:18:59.852Z,86.72
2019-03-29T03:21:28.105Z,87.26
2019-03-29T03:23:57.058Z,86.03
2019-03-29T03:26:26.097Z,86.73
2019-03-29T03:28:54.945Z,86.84
2019-03-29T03:31:24.098Z,86.77
2019-03-29T03:33:52.740Z,86.42
2019-03-29T03:36:20.999Z,87.67
2019-03-29T03:38:50.053Z,87.76
2019-03-29T03:41:18.316Z,87.36
2019-03-29T03:43:46.626Z,87.87
2019-03-29T03:46:14.907Z,87.07
2019-03-29T03:48:43.947Z,86.62
2019-03-29T03:51:12.213Z,86.92
2019-03-29T03:53:40.792Z,86.97
2019-03-29T03:56:09.043Z,86.79
2019-03-29T03:58:37.329Z,87.74
2019-03-29T04:01:05.594Z,87.49
2019-03-29T04:03:34.165Z,87.21
2019-03-29T04:06:02.517Z,87.31
2019-03-29T04:08:30.780Z,87.72
2019-03-29T04:10:59.085Z,88.19
2019-03-29T04:13:27.321Z,87.95
2019-03-29T04:15:55.614Z,87.78
2019-03-29T04:18:23.868Z,86.92
2019-03-29T04:20:52.976Z,86.82
2019-03-29T04:23:21.237Z,87.05
2019-03-29T04:25:49.519Z,86.55
2019-03-29T04:28:17.778Z,87.11
2019-03-29T04:30:46.062Z,87.61
2019-03-29T04:33:14.319Z,88.63
2019-03-29T04:35:42.894Z,87.57
2019-03-29T04:38:11.151Z,86.95
2019-03-29T04:40:39.438Z,87.40
2019-03-29T04:43:07.695Z,86.81
2019-03-29T04:45:36.560Z,86.77
2019-03-29T04:48:04.819Z,88.28
2019-03-29T04:50:33.104Z,86.79
2019-03-29T04:53:01.358Z,87.29
2019-03-29T04:55:30.314Z,87.74
2019-03-29T04:57:58.570Z,88.16
2019-03-29T05:00:27.623Z,88.04
2019-03-29T05:02:55.888Z,87.47
2019-03-29T05:05:24.167Z,87.59
2019-03-29T05:07:52.427Z,88.41
2019-03-29T05:10:21.911Z,87.09
2019-03-29T05:12:50.353Z,87.47
2019-03-29T05:15:20.086Z,87.72
2019-03-29T05:17:48.335Z,88.46
2019-03-29T05:20:16.617Z,87.83
2019-03-29T05:22:44.880Z,87.48
2019-03-29T05:25:13.159Z,88.73
2019-03-29T05:27:41.421Z,88.50
2019-03-29T05:30:09.704Z,87.94
2019-03-29T05:32:37.964Z,88.13
2019-03-29T05:35:07.168Z,88.79
2019-03-29T05:37:36.000Z,89.63
2019-03-29T05:40:05.925Z,90.48
2019-03-29T05:42:34.251Z,90.32
2019-03-29T05:45:02.536Z,90.87
2019-03-29T05:47:30.796Z,90.94
2019-03-29T05:49:59.080Z,90.54
2019-03-29T05:52:27.340Z,89.11
2019-03-29T05:54:55.627Z,88.74
2019-03-29T05:57:23.886Z,88.85
2019-03-29T05:59:52.714Z,88.50
2019-03-29T06:02:21.305Z,88.02
2019-03-29T06:04:49.565Z,87.89
2019-03-29T06:07:19.074Z,87.83
2019-03-29T06:09:48.195Z,87.74
2019-03-29T06:12:17.100Z,88.02
2019-03-29T06:14:45.931Z,88.08
2019-03-29T06:17:14.216Z,87.68
2019-03-29T06:19:42.475Z,87.20
2019-03-29T06:22:10.762Z,86.74
2019-03-29T06:24:39.091Z,87.37
2019-03-29T06:27:07.373Z,87.02
2019-03-29T06:29:35.635Z,87.23
2019-03-29T06:32:03.919Z,86.95
2019-03-29T06:34:32.179Z,85.83
2019-03-29T06:37:00.464Z,85.16
2019-03-29T06:39:28.723Z,85.55
2019-03-29T06:41:57.014Z,84.27
2019-03-29T06:44:25.444Z,83.69
2019-03-29T06:46:53.729Z,84.02
2019-03-29T06:49:21.987Z,83.41
2019-03-29T06:51:50.275Z,83.33
2019-03-29T06:54:18.532Z,81.06
2019-03-29T06:56:46.812Z,81.09
2019-03-29T06:59:15.071Z,79.51
2019-03-29T07:01:46.331Z,79.91
2019-03-29T07:04:13.338Z,79.64
2019-03-29T07:06:41.695Z,80.51
2019-03-29T07:09:09.955Z,79.83
2019-03-29T07:11:39.755Z,80.25
2019-03-29T07:14:08.179Z,80.19
2019-03-29T07:16:36.463Z,80.43
2019-03-29T07:19:05.202Z,79.47
2019-03-29T07:21:33.756Z,79.15
2019-03-29T07:24:02.016Z,76.16
2019-03-29T07:26:30.300Z,75.71
2019-03-29T07:28:58.560Z,73.96
2019-03-29T07:31:26.844Z,72.85
2019-03-29T07:33:55.103Z,71.46
2019-03-29T07:36:23.457Z,70.79
2019-03-29T07:38:51.718Z,70.78
2019-03-29T07:41:30.974Z,69.77
2019-03-29T07:43:50.152Z,70.90
2019-03-29T07:46:18.439Z,68.64
2019-03-29T07:48:46.768Z,69.00
2019-03-29T07:51:15.064Z,69.26
2019-03-29T07:53:45.048Z,69.42
2019-03-29T07:56:13.563Z,70.07
2019-03-29T07:58:41.856Z,68.94
2019-03-29T08:01:10.124Z,67.87
2019-03-29T08:03:38.404Z,67.72
2019-03-29T08:06:06.668Z,67.80
2019-03-29T08:08:35.008Z,68.14
2019-03-29T08:11:03.305Z,68.29
2019-03-29T08:13:31.772Z,67.28
2019-03-29T08:16:00.022Z,66.88
2019-03-29T08:18:28.309Z,67.38
2019-03-29T08:20:56.567Z,66.82
2019-03-29T08:23:24.860Z,66.15
2019-03-29T08:25:53.120Z,65.27
2019-03-29T08:28:21.490Z,65.75
2019-03-29T08:30:49.756Z,64.76
2019-03-29T08:33:18.044Z,66.14
2019-03-29T08:35:46.403Z,64.51
2019-03-29T08:38:15.460Z,65.07
2019-03-29T08:40:45.361Z,63.20
2019-03-29T08:43:14.465Z,62.39
2019-03-29T08:45:43.503Z,64.40
2019-03-29T08:48:11.793Z,63.59
2019-03-29T08:50:40.457Z,62.96
2019-03-29T08:53:08.745Z,65.00
2019-03-29T08:55:45.519Z,62.87
2019-03-29T08:58:07.020Z,63.16
2019-03-29T09:00:35.287Z,62.20
2019-03-29T09:03:03.572Z,62.62
2019-03-29T09:05:31.836Z,61.43
2019-03-29T09:08:00.129Z,61.94
2019-03-29T09:10:28.734Z,62.84
2019-03-29T09:12:57.011Z,61.01
2019-03-29T09:15:25.273Z,60.36
2019-03-29T09:17:53.561Z,59.94
2019-03-29T09:20:21.825Z,62.47
2019-03-29T09:22:50.112Z,61.46
2019-03-29T09:25:20.976Z,60.83
2019-03-29T09:27:48.656Z,62.78
2019-03-29T09:30:17.689Z,62.28
2019-03-29T09:32:47.010Z,60.82
2019-03-29T09:35:15.273Z,60.38
2019-03-29T09:37:44.486Z,60.71
2019-03-29T09:40:14.082Z,58.07
2019-03-29T09:42:42.488Z,57.85
2019-03-29T09:45:10.754Z,57.27
2019-03-29T09:47:40.752Z,58.99
2019-03-29T09:50:10.498Z,59.30
2019-03-29T09:52:39.184Z,62.59
2019-03-29T09:55:07.481Z,58.23
2019-03-29T09:57:37.924Z,56.48
2019-03-29T10:00:19.244Z,57.38
2019-03-29T10:02:38.829Z,57.21
2019-03-29T10:05:07.199Z,58.57
2019-03-29T10:07:35.448Z,55.32
2019-03-29T10:10:04.878Z,55.51
2019-03-29T10:12:43.129Z,55.97
2019-03-29T10:15:03.152Z,55.88
2019-03-29T10:17:31.419Z,53.11
2019-03-29T10:19:59.712Z,57.74
2019-03-29T10:22:28.331Z,52.29
2019-03-29T10:24:56.683Z,51.23
2019-03-29T10:27:25.711Z,51.67
2019-03-29T10:29:54.294Z,50.66
2019-03-29T10:32:22.548Z,50.20
2019-03-29T10:34:50.832Z,53.65
2019-03-29T10:37:19.759Z,49.15
2019-03-29T10:39:48.044Z,52.69
2019-03-29T10:42:16.304Z,53.31
2019-03-29T10:44:49.373Z,50.22
2019-03-29T10:47:17.861Z,50.65
2019-03-29T10:49:46.144Z,50.06
2019-03-29T10:52:14.405Z,50.24
2019-03-29T10:54:43.507Z,50.32
2019-03-29T10:57:12.335Z,53.67
2019-03-29T10:59:40.694Z,50.72
2019-03-29T11:02:08.956Z,50.90
2019-03-29T11:04:38.011Z,53.99
2019-03-29T11:07:07.038Z,51.30
2019-03-29T11:09:37.092Z,53.76
2019-03-29T11:12:05.876Z,49.79
2019-03-29T11:14:34.161Z,52.69
2019-03-29T11:17:02.419Z,50.97
2019-03-29T11:19:30.706Z,50.09
2019-03-29T11:21:58.964Z,48.61
2019-03-29T11:24:27.247Z,47.98
2019-03-29T11:26:56.280Z,48.01
2019-03-29T11:29:24.570Z,47.36
2019-03-29T11:31:52.827Z,47.50
2019-03-29T11:34:21.195Z,48.00
2019-03-29T11:36:52.420Z,48.36
2019-03-29T11:39:20.033Z,47.41
2019-03-29T11:41:48.287Z,51.45
2019-03-29T11:44:16.571Z,47.40
2019-03-29T11:46:45.598Z,49.73
2019-03-29T11:49:13.889Z,48.98
2019-03-29T11:51:42.350Z,47.44
2019-03-29T11:54:11.199Z,48.49
2019-03-29T11:56:39.459Z,46.12
2019-03-29T11:59:07.744Z,48.71
2019-03-29T12:01:36.005Z,48.10
2019-03-29T12:04:04.370Z,48.17
2019-03-29T12:06:32.634Z,47.64
2019-03-29T12:09:01.260Z,49.36
2019-03-29T12:11:30.856Z,47.33
2019-03-29T12:13:59.683Z,46.40
2019-03-29T12:16:27.968Z,49.35
2019-03-29T12:18:56.227Z,45.18
2019-03-29T12:21:24.519Z,45.74
2019-03-29T12:23:52.783Z,46.74
2019-03-29T12:26:21.083Z,46.08
2019-03-29T12:28:49.343Z,44.62
2019-03-29T12:31:18.197Z,46.12
2019-03-29T12:33:47.031Z,45.51
2019-03-29T12:36:15.315Z,45.34
2019-03-29T12:38:43.577Z,45.80
2019-03-29T12:41:11.859Z,45.09
2019-03-29T12:43:40.119Z,45.51
2019-03-29T12:46:08.403Z,46.84
2019-03-29T12:48:36.662Z,44.45
2019-03-29T12:51:05.083Z,46.44
2019-03-29T12:53:33.372Z,47.51
2019-03-29T12:56:01.650Z,46.11
2019-03-29T12:58:29.914Z,44.46
2019-03-29T13:00:58.202Z,46.09
2019-03-29T13:03:26.464Z,44.75
2019-03-29T13:05:55.319Z,44.75
2019-03-29T13:08:23.585Z,44.45
2019-03-29T13:10:52.139Z,43.31
2019-03-29T13:13:20.392Z,44.00
2019-03-29T13:15:48.676Z,44.00
2019-03-29T13:18:16.935Z,42.88
2019-03-29T13:20:45.229Z,42.22
2019-03-29T13:23:13.485Z,42.22
2019-03-29T13:25:41.771Z,44.14
2019-03-29T13:28:11.375Z,42.61
2019-03-29T13:30:39.654Z,45.03
2019-03-29T13:33:07.916Z,43.35
2019-03-29T13:35:36.867Z,42.22
2019-03-29T13:38:06.468Z,44.17
2019-03-29T13:40:34.752Z,41.81
2019-03-29T13:43:03.012Z,41.89
2019-03-29T13:45:31.296Z,44.25
2019-03-29T13:47:59.556Z,44.25
2019-03-29T13:50:27.843Z,45.43
2019-03-29T13:52:56.105Z,43.55
2019-03-29T13:55:24.391Z,40.33
2019-03-29T13:57:52.655Z,42.04
2019-03-29T14:00:20.942Z,43.32
2019-03-29T14:02:49.204Z,41.72
2019-03-29T14:05:17.488Z,41.17
2019-03-29T14:07:45.745Z,41.57
2019-03-29T14:10:14.004Z,40.37
2019-03-29T14:12:43.627Z,40.39
2019-03-29T14:15:12.024Z,41.92
2019-03-29T14:17:40.309Z,40.45
2019-03-29T14:20:09.795Z,39.99
2019-03-29T14:22:39.202Z,40.38
2019-03-29T14:25:07.729Z,41.29
2019-03-29T14:27:36.013Z,41.20
2019-03-29T14:30:06.312Z,39.15
2019-03-29T14:32:34.595Z,38.86
2019-03-29T14:35:03.430Z,40.16
2019-03-29T14:37:31.712Z,39.37
2019-03-29T14:39:59.983Z,41.13
2019-03-29T14:42:28.265Z,39.29
2019-03-29T14:44:56.524Z,40.12
2019-03-29T14:47:38.138Z,40.63
2019-03-29T14:49:55.127Z,43.29
2019-03-29T14:52:24.180Z,41.87
2019-03-29T14:54:53.774Z,44.89
2019-03-29T14:57:22.050Z,43.16
2019-03-29T14:59:50.307Z,41.73
2019-03-29T15:02:21.871Z,41.73
2019-03-29T15:04:49.139Z,42.86
2019-03-29T15:07:17.411Z,42.60
2019-03-29T15:09:45.666Z,42.13
2019-03-29T15:12:14.271Z,44.06
2019-03-29T15:14:42.529Z,44.72
2019-03-29T15:17:10.812Z,45.67
2019-03-29T15:19:39.072Z,43.00
2019-03-29T15:22:07.351Z,44.26
2019-03-29T15:24:35.606Z,44.10
2019-03-29T15:27:03.885Z,44.80
2019-03-29T15:29:32.145Z,44.81
2019-03-29T15:32:00.414Z,46.03
2019-03-29T15:34:28.665Z,47.16
2019-03-29T15:36:56.951Z,49.50
2019-03-29T15:39:26.553Z,46.74
2019-03-29T15:41:54.830Z,50.00
2019-03-29T15:44:23.083Z,53.70
2019-03-29T15:46:51.366Z,53.01
2019-03-29T15:49:19.621Z,55.27
2019-03-29T15:51:47.902Z,56.67
2019-03-29T15:54:16.157Z,55.14
2019-03-29T15:56:44.460Z,56.47
2019-03-29T15:59:12.718Z,57.53
2019-03-29T16:01:40.980Z,57.00
2019-03-29T16:04:09.255Z,57.93
2019-03-29T16:06:38.079Z,60.52
2019-03-29T16:09:06.426Z,59.54
2019-03-29T16:11:35.050Z,59.05
2019-03-29T16:14:03.328Z,59.16
2019-03-29T16:16:31.593Z,59.35
2019-03-29T16:18:59.872Z,59.92
2019-03-29T16:21:29.465Z,59.39
2019-03-29T16:23:58.315Z,59.78
2019-03-29T16:26:26.570Z,62.00
2019-03-29T16:28:54.856Z,61.82
2019-03-29T16:31:23.982Z,61.14
2019-03-29T16:33:52.549Z,62.97
2019-03-29T16:36:20.812Z,63.74
2019-03-29T16:38:49.087Z,62.56
2019-03-29T16:41:17.338Z,62.80
2019-03-29T16:43:45.966Z,64.63
2019-03-29T16:46:14.990Z,64.32
2019-03-29T16:48:43.271Z,64.10
2019-03-29T16:51:11.526Z,64.53
2019-03-29T16:53:39.947Z,63.68
2019-03-29T16:56:11.904Z,64.54
2019-03-29T16:58:39.216Z,64.71
2019-03-29T17:01:07.475Z,65.12
2019-03-29T17:03:35.755Z,65.34
2019-03-29T17:06:04.012Z,65.81
2019-03-29T17:08:32.298Z,65.92
2019-03-29T17:11:00.554Z,65.74
2019-03-29T17:13:29.602Z,66.78
2019-03-29T17:16:01.985Z,67.40
2019-03-29T17:18:29.760Z,67.39
2019-03-29T17:20:58.188Z,68.12
2019-03-29T17:23:26.806Z,68.03
2019-03-29T17:25:55.062Z,67.84
2019-03-29T17:28:23.345Z,67.97
2019-03-29T17:30:53.240Z,68.97
2019-03-29T17:33:22.625Z,69.19
2019-03-29T17:35:50.865Z,69.41
2019-03-29T17:38:19.999Z,69.17
2019-03-29T17:40:48.534Z,69.29
2019-03-29T17:43:18.254Z,69.80
2019-03-29T17:45:46.509Z,69.24
2019-03-29T17:48:14.766Z,69.05
2019-03-29T17:50:43.046Z,70.03
2019-03-29T17:53:12.174Z,69.83
2019-03-29T17:55:40.453Z,69.97
2019-03-29T17:58:08.708Z,70.34
2019-03-29T18:00:37.001Z,70.76
2019-03-29T18:03:05.253Z,71.01
2019-03-29T18:05:34.104Z,70.76
2019-03-29T18:08:03.183Z,70.28
2019-03-29T18:10:31.463Z,71.02
2019-03-29T18:13:00.306Z,70.97
2019-03-29T18:15:29.151Z,71.29
2019-03-29T18:17:57.415Z,71.23
2019-03-29T18:20:25.699Z,70.43
2019-03-29T18:22:53.952Z,70.24
2019-03-29T18:25:22.242Z,70.43
2019-03-29T18:27:50.499Z,70.80
2019-03-29T18:30:36.940Z,71.23
2019-03-29T18:33:06.034Z,71.72
2019-03-29T18:35:34.318Z,71.55
2019-03-29T18:38:02.578Z,69.87
2019-03-29T18:40:30.859Z,69.40
2019-03-29T18:42:59.587Z,69.54
2019-03-29T18:45:28.440Z,69.76
2019-03-29T18:47:56.696Z,71.04
2019-03-29T18:50:24.971Z,71.30
2019-03-29T18:52:53.229Z,71.38
2019-03-29T18:55:21.510Z,72.33
2019-03-29T18:57:51.003Z,72.72
2019-03-29T19:00:30.561Z,72.08
2019-03-29T19:02:58.812Z,72.33
2019-03-29T19:05:27.360Z,73.02
2019-03-29T19:07:55.617Z,73.56
2019-03-29T19:10:23.894Z,73.68
2019-03-29T19:12:52.150Z,73.90
2019-03-29T19:15:20.426Z,73.56
2019-03-29T19:17:49.301Z,74.22
2019-03-29T19:20:27.238Z,74.13
2019-03-29T19:22:48.358Z,74.28
2019-03-29T19:25:16.639Z,74.55
2019-03-29T19:27:44.895Z,74.81
2019-03-29T19:30:13.175Z,75.67
2019-03-29T19:32:41.430Z,75.81
2019-03-29T19:35:09.705Z,75.49
2019-03-29T19:37:37.971Z,75.62
2019-03-29T19:40:07.013Z,76.01
2019-03-29T19:42:36.502Z,75.98
2019-03-29T19:45:07.018Z,75.68
2019-03-29T19:47:35.274Z,75.71
2019-03-29T19:50:04.196Z,76.31
2019-03-29T19:52:32.450Z,76.40
2019-03-29T19:55:01.478Z,75.69
2019-03-29T19:57:30.277Z,76.13
2019-03-29T19:59:58.542Z,76.41
2019-03-29T20:02:27.190Z,76.75
2019-03-29T20:04:55.404Z,76.93
2019-03-29T20:07:23.683Z,77.30
2019-03-29T20:09:51.939Z,77.28
2019-03-29T20:12:20.791Z,76.80
2019-03-29T20:14:49.630Z,76.54
2019-03-29T20:17:27.351Z,76.24
2019-03-29T20:19:47.902Z,76.52
2019-03-29T20:22:16.425Z,77.61
2019-03-29T20:24:46.195Z,78.15
2019-03-29T20:27:15.210Z,78.42
2019-03-29T20:29:43.466Z,77.80
2019-03-29T20:32:11.741Z,77.76
2019-03-29T20:34:40.004Z,78.67
2019-03-29T20:37:09.023Z,78.68
2019-03-29T20:39:37.314Z,78.48
2019-03-29T20:42:05.602Z,79.02
2019-03-29T20:44:33.853Z,79.96
2019-03-29T20:47:02.131Z,79.23
2019-03-29T20:49:30.387Z,78.94
2019-03-29T20:51:58.670Z,79.54
2019-03-29T20:54:26.922Z,79.11
2019-03-29T20:56:55.197Z,79.81
2019-03-29T20:59:24.224Z,79.84
2019-03-29T21:01:53.000Z,78.71
2019-03-29T21:04:21.661Z,78.03
2019-03-29T21:06:49.937Z,78.63
2019-03-29T21:09:18.199Z,77.32
2019-03-29T21:11:47.045Z,76.55
2019-03-29T21:14:15.301Z,76.50
2019-03-29T21:16:43.578Z,76.42
2019-03-29T21:19:11.835Z,76.45
2019-03-29T21:21:40.109Z,76.71
2019-03-29T21:24:08.366Z,76.24
2019-03-29T21:26:37.421Z,75.95
2019-03-29T21:29:06.445Z,75.80
2019-03-29T21:31:34.721Z,75.33
2019-03-29T21:34:02.975Z,75.48
2019-03-29T21:36:31.262Z,75.35
2019-03-29T21:38:59.506Z,75.34
2019-03-29T21:41:27.781Z,75.05
2019-03-29T21:43:56.607Z,75.54
2019-03-29T21:46:24.881Z,76.09
2019-03-29T21:48:53.139Z,76.77
2019-03-29T21:51:22.187Z,77.37
2019-03-29T21:53:50.440Z,77.44
2019-03-29T21:56:18.711Z,77.31
2019-03-29T21:58:47.245Z,76.62
2019-03-29T22:01:15.505Z,76.73
2019-03-29T22:03:43.776Z,77.61
2019-03-29T22:06:12.033Z,77.99
2019-03-29T22:08:40.314Z,78.00
2019-03-29T22:11:09.135Z,77.80
2019-03-29T22:13:37.410Z,77.82
2019-03-29T22:16:06.236Z,77.75
2019-03-29T22:18:38.180Z,77.67
2019-03-29T22:21:04.486Z,77.15
2019-03-29T22:23:33.807Z,77.48
2019-03-29T22:26:02.053Z,77.84
2019-03-29T22:28:30.337Z,76.55
2019-03-29T22:30:58.578Z,75.05
2019-03-29T22:33:26.857Z,74.65
2019-03-29T22:35:55.104Z,74.45
2019-03-29T22:38:24.151Z,74.83
2019-03-29T22:40:52.400Z,75.91
2019-03-29T22:43:21.245Z,76.73
2019-03-29T22:45:49.498Z,76.26
2019-03-29T22:48:17.773Z,75.88
2019-03-29T22:50:47.248Z,76.37
2019-03-29T22:53:16.221Z,76.01
2019-03-29T22:55:44.470Z,77.14
2019-03-29T22:58:13.074Z,76.43
2019-03-29T23:00:44.443Z,76.70
2019-03-29T23:03:14.058Z,76.98
2019-03-29T23:05:42.314Z,76.41
2019-03-29T23:08:10.586Z,76.30
2019-03-29T23:10:38.841Z,76.72
2019-03-29T23:13:07.126Z,73.84
2019-03-29T23:15:35.437Z,73.53
2019-03-29T23:18:03.717Z,71.43
2019-03-29T23:20:32.737Z,71.43
2019-03-29T23:23:01.011Z,72.84
2019-03-29T23:25:29.260Z,73.42
2019-03-29T23:27:58.307Z,73.19
2019-03-29T23:30:27.129Z,73.00
2019-03-29T23:32:55.404Z,73.14
2019-03-29T23:35:24.220Z,73.72
2019-03-29T23:37:52.493Z,73.03
2019-03-29T23:40:20.757Z,71.37
2019-03-29T23:42:49.597Z,72.08
2019-03-29T23:45:17.848Z,72.58
2019-03-29T23:47:46.121Z,73.49
2019-03-29T23:50:14.370Z,73.57
2019-03-29T23:52:42.645Z,72.68
2019-03-29T23:55:10.915Z,71.67
2019-03-29T23:57:39.749Z,71.19
